createdAt,value
2023-03-06T00:00:59.374Z,61.50
2023-03-06T00:03:28.027Z,61.90
2023-03-06T00:05:57.326Z,62.00
2023-03-06T00:08:26.731Z,62.00
2023-03-06T00:10:54.155Z,62.00
2023-03-06T00:13:21.794Z,62.00
2023-03-06T00:15:49.381Z,62.00
2023-03-06T00:18:19.725Z,62.10
2023-03-06T00:20:46.984Z,62.10
2023-03-06T00:23:14.217Z,62.10
2023-03-06T00:25:45.754Z,62.00
2023-03-06T00:28:14.790Z,62.00
2023-03-06T00:30:42.795Z,61.90
2023-03-06T00:33:10.793Z,62.00
2023-03-06T00:35:41.523Z,61.90
2023-03-06T00:38:11.416Z,62.10
2023-03-06T00:40:38.628Z,62.10
2023-03-06T00:43:05.927Z,62.10
2023-03-06T00:45:33.230Z,62.00
2023-03-06T00:48:00.620Z,62.20
2023-03-06T00:50:28.101Z,62.10
2023-03-06T00:52:55.805Z,62.10
2023-03-06T00:55:25.243Z,62.20
2023-03-06T00:57:52.423Z,62.40
2023-03-06T01:00:20.718Z,62.60
2023-03-06T01:02:50.102Z,62.50
2023-03-06T01:05:17.706Z,62.50
2023-03-06T01:07:45.150Z,62.30
2023-03-06T01:10:12.886Z,62.20
2023-03-06T01:12:41.543Z,62.20
2023-03-06T01:15:10.622Z,62.30
2023-03-06T01:17:38.267Z,62.40
2023-03-06T01:20:06.418Z,62.50
2023-03-06T01:22:34.227Z,62.50
2023-03-06T01:25:01.519Z,62.40
2023-03-06T01:27:28.747Z,62.40
2023-03-06T01:29:56.147Z,62.40
2023-03-06T01:32:23.619Z,62.60
2023-03-06T01:34:51.082Z,62.70
2023-03-06T01:37:18.514Z,62.80
2023-03-06T01:39:45.932Z,62.80
2023-03-06T01:42:13.645Z,62.80
2023-03-06T01:45:05.625Z,63.00
2023-03-06T01:47:35.653Z,62.90
2023-03-06T01:50:03.984Z,62.80
2023-03-06T01:52:42.011Z,62.80
2023-03-06T01:55:15.782Z,63.20
2023-03-06T01:57:46.632Z,63.20
2023-03-06T02:00:15.614Z,63.20
2023-03-06T02:03:02.598Z,63.20
2023-03-06T02:05:30.113Z,63.30
2023-03-06T02:07:57.988Z,63.30
2023-03-06T02:10:25.789Z,63.30
2023-03-06T02:12:53.702Z,63.20
2023-03-06T02:15:24.523Z,63.10
2023-03-06T02:17:54.032Z,63.00
2023-03-06T02:20:34.049Z,63.00
2023-03-06T02:23:13.593Z,62.90
2023-03-06T02:25:48.202Z,63.30
2023-03-06T02:28:21.817Z,63.10
2023-03-06T02:30:51.263Z,63.30
2023-03-06T02:33:20.847Z,63.40
2023-03-06T02:35:54.274Z,63.40
2023-03-06T02:38:27.519Z,63.30
2023-03-06T02:40:57.898Z,63.30
2023-03-06T02:43:31.576Z,63.20
2023-03-06T02:45:58.965Z,63.30
2023-03-06T02:48:26.600Z,63.20
2023-03-06T02:50:54.188Z,63.10
2023-03-06T02:53:21.691Z,63.30
2023-03-06T02:55:49.696Z,63.30
2023-03-06T02:58:19.621Z,63.30
2023-03-06T03:00:48.910Z,63.40
2023-03-06T03:03:17.655Z,63.50
2023-03-06T03:05:46.207Z,63.40
2023-03-06T03:08:22.653Z,63.50
2023-03-06T03:10:53.329Z,63.80
2023-03-06T03:13:20.761Z,64.20
2023-03-06T03:16:04.046Z,64.30
2023-03-06T03:18:31.454Z,64.40
2023-03-06T03:20:59.155Z,64.20
2023-03-06T03:23:27.120Z,64.00
2023-03-06T03:26:13.244Z,64.20
2023-03-06T03:28:44.698Z,64.30
2023-03-06T03:31:14.480Z,64.20
2023-03-06T03:33:42.607Z,64.10
2023-03-06T03:36:10.655Z,64.10
2023-03-06T03:38:41.856Z,64.00
2023-03-06T03:41:09.158Z,64.10
2023-03-06T03:43:36.894Z,64.10
2023-03-06T03:46:05.887Z,64.90
2023-03-06T03:48:33.536Z,64.20
2023-03-06T03:51:12.796Z,64.20
2023-03-06T03:53:44.490Z,64.30
2023-03-06T03:56:13.831Z,65.00
2023-03-06T03:58:50.441Z,64.20
2023-03-06T04:01:17.940Z,64.40
2023-03-06T04:03:45.474Z,64.40
2023-03-06T04:06:14.862Z,64.50
2023-03-06T04:08:42.210Z,64.50
2023-03-06T04:11:10.125Z,64.60
2023-03-06T04:13:37.388Z,65.00
2023-03-06T04:16:06.365Z,65.00
2023-03-06T04:18:35.678Z,65.50
2023-03-06T04:21:05.893Z,65.60
2023-03-06T04:23:33.361Z,65.70
2023-03-06T04:26:00.830Z,65.60
2023-03-06T04:28:28.526Z,65.40
2023-03-06T04:30:56.197Z,65.50
2023-03-06T04:33:23.784Z,65.60
2023-03-06T04:35:51.076Z,65.70
2023-03-06T04:38:24.178Z,66.40
2023-03-06T04:40:51.735Z,65.50
2023-03-06T04:43:19.247Z,65.60
2023-03-06T04:45:46.535Z,65.60
2023-03-06T04:48:16.827Z,65.70
2023-03-06T04:50:44.891Z,65.70
2023-03-06T04:53:14.381Z,65.80
2023-03-06T04:55:41.690Z,66.00
2023-03-06T04:58:11.637Z,66.20
2023-03-06T05:00:38.905Z,66.30
2023-03-06T05:03:06.117Z,66.50
2023-03-06T05:05:33.711Z,66.50
2023-03-06T05:08:00.933Z,66.50
2023-03-06T05:10:29.086Z,66.40
2023-03-06T05:12:56.410Z,66.40
2023-03-06T05:15:23.629Z,66.40
2023-03-06T05:17:51.058Z,66.50
2023-03-06T05:20:18.464Z,66.50
2023-03-06T05:22:45.903Z,66.50
2023-03-06T05:25:13.251Z,66.60
2023-03-06T05:27:40.714Z,66.60
2023-03-06T05:30:11.187Z,66.70
2023-03-06T05:32:38.761Z,66.80
2023-03-06T05:35:06.557Z,67.00
2023-03-06T05:37:34.130Z,67.30
2023-03-06T05:40:04.968Z,67.10
2023-03-06T05:42:32.244Z,67.30
2023-03-06T05:44:59.647Z,67.20
2023-03-06T05:47:26.938Z,67.20
2023-03-06T05:49:54.290Z,67.20
2023-03-06T05:52:21.557Z,67.00
2023-03-06T05:54:53.670Z,67.00
2023-03-06T05:57:22.396Z,67.10
2023-03-06T05:59:50.793Z,67.00
2023-03-06T06:02:19.129Z,67.20
2023-03-06T06:04:46.810Z,67.30
2023-03-06T06:07:16.192Z,67.50
2023-03-06T06:09:45.590Z,67.50
2023-03-06T06:12:15.414Z,67.60
2023-03-06T06:14:42.773Z,67.70
2023-03-06T06:17:12.472Z,67.90
2023-03-06T06:19:39.907Z,68.10
2023-03-06T06:22:07.735Z,68.10
2023-03-06T06:24:34.984Z,68.30
2023-03-06T06:27:03.941Z,68.40
2023-03-06T06:29:31.606Z,68.60
2023-03-06T06:31:59.947Z,68.50
2023-03-06T06:34:28.426Z,68.70
2023-03-06T06:36:55.994Z,68.70
2023-03-06T06:39:24.382Z,68.80
2023-03-06T06:42:09.624Z,68.90
2023-03-06T06:44:40.530Z,68.90
2023-03-06T06:47:25.320Z,69.10
2023-03-06T06:49:55.397Z,69.00
2023-03-06T06:52:24.594Z,69.00
2023-03-06T06:54:52.904Z,69.10
2023-03-06T06:57:20.636Z,69.00
2023-03-06T06:59:48.033Z,68.90
2023-03-06T07:02:16.496Z,68.70
2023-03-06T07:05:00.757Z,68.80
2023-03-06T07:07:33.380Z,68.70
2023-03-06T07:10:01.107Z,68.50
2023-03-06T07:12:28.561Z,68.60
2023-03-06T07:14:55.976Z,68.70
2023-03-06T07:17:23.461Z,68.60
2023-03-06T07:19:51.422Z,68.70
2023-03-06T07:22:18.777Z,68.40
2023-03-06T07:24:46.213Z,68.30
2023-03-06T07:27:13.554Z,68.30
2023-03-06T07:29:43.541Z,68.20
2023-03-06T07:32:11.526Z,68.10
2023-03-06T07:34:38.994Z,68.00
2023-03-06T07:37:06.458Z,67.90
2023-03-06T07:39:33.953Z,67.80
2023-03-06T07:42:01.429Z,67.80
2023-03-06T07:44:28.823Z,67.70
2023-03-06T07:46:56.321Z,67.60
2023-03-06T07:49:23.729Z,67.30
2023-03-06T07:51:51.101Z,66.90
2023-03-06T07:54:18.603Z,66.60
2023-03-06T07:56:46.034Z,66.80
2023-03-06T07:59:13.426Z,66.70
2023-03-06T08:01:41.044Z,66.60
2023-03-06T08:04:08.482Z,66.50
2023-03-06T08:06:36.319Z,67.20
2023-03-06T08:09:03.969Z,66.40
2023-03-06T08:11:33.190Z,66.00
2023-03-06T08:14:01.022Z,66.00
2023-03-06T08:16:31.531Z,66.00
2023-03-06T08:18:59.076Z,66.00
2023-03-06T08:21:28.550Z,66.20
2023-03-06T08:23:56.821Z,66.30
2023-03-06T08:26:27.930Z,66.70
2023-03-06T08:28:56.998Z,66.50
2023-03-06T08:31:37.236Z,66.60
2023-03-06T08:34:07.407Z,67.30
2023-03-06T08:36:34.931Z,66.50
2023-03-06T08:39:03.452Z,66.40
2023-03-06T08:41:31.666Z,66.10
2023-03-06T08:43:59.044Z,66.10
2023-03-06T08:46:28.368Z,66.10
2023-03-06T08:48:56.676Z,66.20
2023-03-06T08:51:24.502Z,66.30
2023-03-06T08:53:52.446Z,66.30
2023-03-06T08:56:22.836Z,66.40
2023-03-06T08:58:51.082Z,66.20
2023-03-06T09:01:24.710Z,66.20
2023-03-06T09:03:54.979Z,66.30
2023-03-06T09:06:23.498Z,65.80
2023-03-06T09:08:52.123Z,65.60
2023-03-06T09:11:21.218Z,65.40
2023-03-06T09:13:49.082Z,65.30
2023-03-06T09:16:16.718Z,65.20
2023-03-06T09:18:44.126Z,65.10
2023-03-06T09:21:11.992Z,65.00
2023-03-06T09:23:39.662Z,65.00
2023-03-06T09:26:08.418Z,65.00
2023-03-06T09:28:38.810Z,64.80
2023-03-06T09:31:15.451Z,64.50
2023-03-06T09:33:43.026Z,64.40
2023-03-06T09:36:18.819Z,64.60
2023-03-06T09:38:48.161Z,64.30
2023-03-06T09:41:26.396Z,64.40
2023-03-06T09:44:04.721Z,64.10
2023-03-06T09:46:46.231Z,64.00
2023-03-06T09:49:23.020Z,63.80
2023-03-06T09:52:12.004Z,63.80
2023-03-06T09:55:22.250Z,64.10
2023-03-06T09:57:58.766Z,64.00
2023-03-06T10:01:01.978Z,64.00
2023-03-06T10:03:50.813Z,64.30
2023-03-06T10:06:22.794Z,64.10
2023-03-06T10:09:01.315Z,64.20
2023-03-06T10:11:37.808Z,64.10
2023-03-06T10:14:40.707Z,64.10
2023-03-06T10:17:18.357Z,64.30
2023-03-06T10:19:47.706Z,64.30
2023-03-06T10:22:46.076Z,64.50
2023-03-06T10:25:36.021Z,64.60
2023-03-06T10:28:10.589Z,64.80
2023-03-06T10:30:59.920Z,64.80
2023-03-06T10:34:05.134Z,64.50
2023-03-06T10:36:32.379Z,64.50
2023-03-06T10:39:00.110Z,64.50
2023-03-06T10:41:31.461Z,64.60
2023-03-06T10:44:05.187Z,65.60
2023-03-06T10:46:39.256Z,65.30
2023-03-06T10:49:27.239Z,65.40
2023-03-06T10:52:01.914Z,65.70
2023-03-06T10:54:35.874Z,65.80
2023-03-06T10:57:28.641Z,66.10
2023-03-06T11:00:22.623Z,66.30
2023-03-06T11:03:16.216Z,66.40
2023-03-06T11:06:10.004Z,66.90
2023-03-06T11:08:40.114Z,67.20
2023-03-06T11:11:11.740Z,67.50
2023-03-06T11:13:41.926Z,68.00
2023-03-06T11:16:18.384Z,68.40
2023-03-06T11:19:01.333Z,68.80
2023-03-06T11:21:35.686Z,69.20
2023-03-06T11:24:19.059Z,69.20
2023-03-06T11:26:56.530Z,69.40
2023-03-06T11:29:42.447Z,69.60
2023-03-06T11:32:29.161Z,69.40
2023-03-06T11:35:03.231Z,69.20
2023-03-06T11:37:45.739Z,69.20
2023-03-06T11:40:28.545Z,69.60
2023-03-06T11:43:00.683Z,69.90
2023-03-06T11:45:42.450Z,70.30
2023-03-06T11:48:18.571Z,71.20
2023-03-06T11:50:55.461Z,71.40
2023-03-06T11:53:30.291Z,71.40
2023-03-06T11:56:14.637Z,70.90
2023-03-06T11:59:07.722Z,69.30
2023-03-06T12:01:50.305Z,68.80
2023-03-06T12:05:05.050Z,68.90
2023-03-06T12:07:33.815Z,68.30
2023-03-06T12:10:24.056Z,68.30
2023-03-06T12:13:03.222Z,68.50
2023-03-06T12:16:08.187Z,68.80
2023-03-06T12:18:49.953Z,68.70
2023-03-06T12:21:48.088Z,68.40
2023-03-06T12:24:38.080Z,67.80
2023-03-06T12:27:40.768Z,67.50
2023-03-06T12:30:38.932Z,67.00
2023-03-06T12:33:33.842Z,67.10
2023-03-06T12:36:29.764Z,66.90
2023-03-06T12:39:18.051Z,66.80
2023-03-06T12:41:59.222Z,66.90
2023-03-06T12:44:48.312Z,66.80
2023-03-06T12:47:19.793Z,66.60
2023-03-06T12:49:54.688Z,66.40
2023-03-06T12:52:31.512Z,65.90
2023-03-06T12:55:01.323Z,65.80
2023-03-06T12:57:28.763Z,65.90
2023-03-06T12:59:56.326Z,65.70
2023-03-06T13:02:50.071Z,65.70
2023-03-06T13:05:43.935Z,65.80
2023-03-06T13:08:26.266Z,65.40
2023-03-06T13:11:47.319Z,65.50
2023-03-06T13:14:24.741Z,65.60
2023-03-06T13:16:52.520Z,65.80
2023-03-06T13:19:25.584Z,65.90
2023-03-06T13:21:55.861Z,66.00
2023-03-06T13:24:25.429Z,66.10
2023-03-06T13:27:04.721Z,66.00
2023-03-06T13:29:35.953Z,66.50
2023-03-06T13:32:04.560Z,66.50
2023-03-06T13:34:31.922Z,66.50
2023-03-06T13:37:23.360Z,67.20
2023-03-06T13:40:00.229Z,67.80
2023-03-06T13:42:42.815Z,67.80
2023-03-06T13:45:24.955Z,68.20
2023-03-06T13:48:33.700Z,68.20
2023-03-06T13:50:46.151Z,68.00
2023-03-06T13:53:35.939Z,67.60
2023-03-06T13:56:28.989Z,67.00
2023-03-06T13:59:19.116Z,67.10
2023-03-06T14:01:59.358Z,67.10
2023-03-06T14:04:57.709Z,67.80
2023-03-06T14:07:29.209Z,66.80
2023-03-06T14:10:00.179Z,66.90
2023-03-06T14:12:35.219Z,67.20
2023-03-06T14:15:12.131Z,67.30
2023-03-06T14:18:02.203Z,67.10
2023-03-06T14:20:44.431Z,66.80
2023-03-06T14:23:32.269Z,66.30
2023-03-06T14:26:22.554Z,66.50
2023-03-06T14:28:59.896Z,67.00
2023-03-06T14:31:42.925Z,67.20
2023-03-06T14:34:23.932Z,67.50
2023-03-06T14:36:58.080Z,67.70
2023-03-06T14:39:38.099Z,67.80
2023-03-06T14:42:07.666Z,68.10
2023-03-06T14:44:35.283Z,68.10
2023-03-06T14:47:33.631Z,68.60
2023-03-06T14:50:21.444Z,69.10
2023-03-06T14:52:51.996Z,69.20
2023-03-06T14:55:22.475Z,69.10
2023-03-06T14:57:56.854Z,69.10
2023-03-06T15:00:33.353Z,69.40
2023-03-06T15:03:02.008Z,69.70
2023-03-06T15:05:30.701Z,69.60
2023-03-06T15:08:04.154Z,69.40
2023-03-06T15:10:34.003Z,69.20
2023-03-06T15:13:22.167Z,69.30
2023-03-06T15:15:58.787Z,68.80
2023-03-06T15:18:36.126Z,68.60
2023-03-06T15:21:10.482Z,68.10
2023-03-06T15:23:40.755Z,68.20
2023-03-06T15:26:36.838Z,68.50
2023-03-06T15:29:11.040Z,68.50
2023-03-06T15:31:40.831Z,68.50
2023-03-06T15:34:12.246Z,68.50
2023-03-06T15:36:44.050Z,68.70
2023-03-06T15:39:34.265Z,68.90
2023-03-06T15:42:07.943Z,69.10
2023-03-06T15:44:35.411Z,69.40
2023-03-06T15:47:08.724Z,69.50
2023-03-06T15:49:38.402Z,69.60
2023-03-06T15:52:09.634Z,69.60
2023-03-06T15:54:37.140Z,69.70
2023-03-06T15:57:07.586Z,69.90
2023-03-06T15:59:42.798Z,69.90
2023-03-06T16:02:15.328Z,69.90
2023-03-06T16:04:43.549Z,69.80
2023-03-06T16:07:11.689Z,69.90
2023-03-06T16:09:43.232Z,70.00
2023-03-06T16:12:19.683Z,70.70
2023-03-06T16:14:48.550Z,69.80
2023-03-06T16:17:16.831Z,69.60
2023-03-06T16:19:44.490Z,69.50
2023-03-06T16:22:11.971Z,69.30
2023-03-06T16:24:39.431Z,69.40
2023-03-06T16:27:07.023Z,69.50
2023-03-06T16:29:35.192Z,69.50
2023-03-06T16:32:03.157Z,69.40
2023-03-06T16:34:30.626Z,69.50
2023-03-06T16:36:58.016Z,69.50
2023-03-06T16:39:25.405Z,69.50
2023-03-06T16:41:52.959Z,69.50
2023-03-06T16:44:20.965Z,69.40
2023-03-06T16:46:50.038Z,69.40
2023-03-06T16:49:22.938Z,69.60
2023-03-06T16:51:51.205Z,69.70
2023-03-06T16:54:19.757Z,69.50
2023-03-06T16:56:47.229Z,69.40
2023-03-06T16:59:14.707Z,69.30
2023-03-06T17:01:45.106Z,69.30
2023-03-06T17:04:12.742Z,69.50
2023-03-06T17:06:41.480Z,69.60
2023-03-06T17:09:10.753Z,69.60
2023-03-06T17:11:43.402Z,69.70
2023-03-06T17:14:10.904Z,69.60
2023-03-06T17:16:40.277Z,69.50
2023-03-06T17:19:08.114Z,69.60
2023-03-06T17:21:38.178Z,69.60
2023-03-06T17:24:06.144Z,69.80
2023-03-06T17:26:33.570Z,69.80
2023-03-06T17:29:00.755Z,69.90
2023-03-06T17:31:28.989Z,69.90
2023-03-06T17:34:00.378Z,70.00
2023-03-06T17:36:29.485Z,70.10
2023-03-06T17:38:58.560Z,70.10
2023-03-06T17:41:26.254Z,70.30
2023-03-06T17:43:58.271Z,70.20
2023-03-06T17:46:25.956Z,70.50
2023-03-06T17:48:53.390Z,70.50
2023-03-06T17:51:20.720Z,70.40
2023-03-06T17:53:49.198Z,70.50
2023-03-06T17:56:16.517Z,70.60
2023-03-06T17:58:44.171Z,70.70
2023-03-06T18:01:21.881Z,70.80
2023-03-06T18:03:50.758Z,70.80
2023-03-06T18:06:19.176Z,70.90
2023-03-06T18:08:47.139Z,71.00
2023-03-06T18:11:15.375Z,71.10
2023-03-06T18:13:44.557Z,71.20
2023-03-06T18:16:14.481Z,71.20
2023-03-06T18:18:42.018Z,71.20
2023-03-06T18:21:11.714Z,71.30
2023-03-06T18:23:40.783Z,71.40
2023-03-06T18:26:11.504Z,71.60
2023-03-06T18:28:42.328Z,71.60
2023-03-06T18:31:36.755Z,71.60
2023-03-06T18:34:10.483Z,71.70
2023-03-06T18:36:38.330Z,71.70
2023-03-06T18:39:08.738Z,71.70
2023-03-06T18:41:36.614Z,71.70
2023-03-06T18:44:04.903Z,71.80
2023-03-06T18:46:35.366Z,71.90
2023-03-06T18:49:03.524Z,71.90
2023-03-06T18:51:31.094Z,72.10
2023-03-06T18:54:00.069Z,72.10
2023-03-06T18:56:27.578Z,72.30
2023-03-06T18:58:55.491Z,72.20
2023-03-06T19:01:23.446Z,72.30
2023-03-06T19:03:50.928Z,72.40
2023-03-06T19:06:18.656Z,72.40
2023-03-06T19:08:46.125Z,72.50
2023-03-06T19:11:16.040Z,72.50
2023-03-06T19:13:44.160Z,72.50
2023-03-06T19:16:21.694Z,73.40
2023-03-06T19:18:49.323Z,72.50
2023-03-06T19:21:19.408Z,72.50
2023-03-06T19:23:47.390Z,72.60
2023-03-06T19:26:16.138Z,72.60
2023-03-06T19:28:43.733Z,72.60
2023-03-06T19:31:14.372Z,72.60
2023-03-06T19:33:42.747Z,72.60
2023-03-06T19:36:12.449Z,72.70
2023-03-06T19:38:40.303Z,72.60
2023-03-06T19:41:13.231Z,72.60
2023-03-06T19:43:42.181Z,72.50
2023-03-06T19:46:14.562Z,72.50
2023-03-06T19:48:42.486Z,72.50
2023-03-06T19:51:10.602Z,72.50
2023-03-06T19:53:39.545Z,72.50
2023-03-06T19:56:09.753Z,72.50
2023-03-06T19:58:37.479Z,72.40
2023-03-06T20:01:11.120Z,72.30
2023-03-06T20:03:39.522Z,72.20
2023-03-06T20:06:10.485Z,72.10
2023-03-06T20:08:38.267Z,72.10
2023-03-06T20:11:05.562Z,72.10
2023-03-06T20:13:32.968Z,72.10
2023-03-06T20:16:03.831Z,72.10
2023-03-06T20:18:31.503Z,72.10
2023-03-06T20:21:00.237Z,72.00
2023-03-06T20:23:28.392Z,72.00
2023-03-06T20:25:55.786Z,72.80
2023-03-06T20:28:23.594Z,72.00
2023-03-06T20:30:50.982Z,72.00
2023-03-06T20:33:19.514Z,71.90
2023-03-06T20:35:46.786Z,71.90
2023-03-06T20:38:15.403Z,71.90
2023-03-06T20:40:43.215Z,71.90
2023-03-06T20:43:10.952Z,71.90
2023-03-06T20:45:38.344Z,72.00
2023-03-06T20:48:06.068Z,71.80
2023-03-06T20:50:33.455Z,71.80
2023-03-06T20:53:00.728Z,71.90
2023-03-06T20:55:27.939Z,71.80
2023-03-06T20:57:55.384Z,71.90
2023-03-06T21:00:22.614Z,72.60
2023-03-06T21:02:50.041Z,71.90
2023-03-06T21:05:17.312Z,71.90
2023-03-06T21:07:44.570Z,71.90
2023-03-06T21:10:12.056Z,72.70
2023-03-06T21:12:39.966Z,71.90
2023-03-06T21:15:07.812Z,71.80
2023-03-06T21:17:35.060Z,71.90
2023-03-06T21:20:02.373Z,71.90
2023-03-06T21:22:30.220Z,71.90
2023-03-06T21:24:57.451Z,71.80
2023-03-06T21:27:24.917Z,71.70
2023-03-06T21:29:52.182Z,71.70
2023-03-06T21:32:19.453Z,72.50
2023-03-06T21:34:46.751Z,71.70
2023-03-06T21:37:14.029Z,71.70
2023-03-06T21:39:41.356Z,71.90
2023-03-06T21:42:08.699Z,71.70
2023-03-06T21:44:36.231Z,71.70
2023-03-06T21:47:03.763Z,71.80
2023-03-06T21:49:31.051Z,71.80
2023-03-06T21:51:58.430Z,71.70
2023-03-06T21:54:26.936Z,71.80
2023-03-06T21:56:54.155Z,71.80
2023-03-06T21:59:21.353Z,71.90
2023-03-06T22:01:48.877Z,71.80
2023-03-06T22:04:16.210Z,71.80
2023-03-06T22:06:43.529Z,71.70
2023-03-06T22:09:12.843Z,71.80
2023-03-06T22:11:40.041Z,71.70
2023-03-06T22:14:07.454Z,71.70
2023-03-06T22:16:34.840Z,71.70
2023-03-06T22:19:02.269Z,71.70
2023-03-06T22:21:29.470Z,71.70
2023-03-06T22:23:57.680Z,71.60
2023-03-06T22:26:26.843Z,71.70
2023-03-06T22:28:54.222Z,71.60
2023-03-06T22:31:24.113Z,71.70
2023-03-06T22:33:56.151Z,71.60
2023-03-06T22:36:24.135Z,71.60
2023-03-06T22:38:56.044Z,71.60
2023-03-06T22:41:23.740Z,71.60
2023-03-06T22:43:51.128Z,71.50
2023-03-06T22:46:18.867Z,71.50
2023-03-06T22:48:46.445Z,71.40
2023-03-06T22:51:16.891Z,71.50
2023-03-06T22:53:44.853Z,71.50
2023-03-06T22:56:14.921Z,71.60
2023-03-06T22:58:44.705Z,71.60
2023-03-06T23:01:24.567Z,71.70
2023-03-06T23:03:54.321Z,71.70
2023-03-06T23:06:33.290Z,71.70
2023-03-06T23:09:12.735Z,71.70
2023-03-06T23:11:59.336Z,71.70
2023-03-06T23:14:49.527Z,71.70
2023-03-06T23:17:35.877Z,71.60
2023-03-06T23:20:21.881Z,71.60
2023-03-06T23:23:07.746Z,71.60
2023-03-06T23:25:44.397Z,71.60
2023-03-06T23:28:12.519Z,71.60
2023-03-06T23:30:40.017Z,71.50
2023-03-06T23:33:08.077Z,71.40
2023-03-06T23:35:36.713Z,71.40
2023-03-06T23:38:04.323Z,71.30
2023-03-06T23:40:33.530Z,71.20
2023-03-06T23:43:02.529Z,71.00
2023-03-06T23:45:30.140Z,70.80
2023-03-06T23:47:58.878Z,70.80
2023-03-06T23:50:26.291Z,70.60
2023-03-06T23:52:54.569Z,70.50
2023-03-06T23:55:22.190Z,70.60
2023-03-06T23:57:49.390Z,70.40
